Terminal Aerodrome Forecast
Issued by NWS

Home | Current Version | Previous Version | Text Only | Print | Product List | Glossary On
Versions: 1 2 3 4 5 6 7 8 9 10 11 12 13 14
000
FTUS44 KLZK 011100
TAFHOT
TAF
KHOT 011120Z 0112/0212 09003KT P6SM VCSH BKN050
      TEMPO 0112/0114 4SM TSRA BR OVC035CB
     FM011400 17007KT P6SM SCT050 OVC150
     FM020000 13003KT P6SM VCSH BKN050
     FM020800 VRB03KT 6SM BR OVC015=

USA.gov is the U.S. government's official web portal to all federal, state and local government web resources and services.